sensor_id;sensor_type;location;lat;lon;timestamp;pressure;altitude;pressure_sealevel;temperature;humidity
21817;BME280;13247;47.504;7.382;2023-03-21T00:00:14;97567.09;;;6.39;100.00
21817;BME280;13247;47.504;7.382;2023-03-21T00:03:00;97562.16;;;6.14;100.00
21817;BME280;13247;47.504;7.382;2023-03-21T00:05:44;97565.66;;;6.10;100.00
21817;BME280;13247;47.504;7.382;2023-03-21T00:08:33;97569.97;;;6.16;100.00
21817;BME280;13247;47.504;7.382;2023-03-21T00:11:18;97565.84;;;5.92;100.00
21817;BME280;13247;47.504;7.382;2023-03-21T00:14:02;97566.78;;;5.84;100.00
21817;BME280;13247;47.504;7.382;2023-03-21T00:16:47;97570.00;;;6.08;100.00
21817;BME280;13247;47.504;7.382;2023-03-21T00:19:36;97569.09;;;6.15;100.00
21817;BME280;13247;47.504;7.382;2023-03-21T00:22:22;97563.16;;;6.00;100.00
21817;BME280;13247;47.504;7.382;2023-03-21T00:25:08;97560.47;;;6.09;100.00
21817;BME280;13247;47.504;7.382;2023-03-21T00:27:53;97558.59;;;6.21;100.00
21817;BME280;13247;47.504;7.382;2023-03-21T00:30:39;97557.69;;;6.25;100.00
21817;BME280;13247;47.504;7.382;2023-03-21T00:33:24;97554.25;;;6.22;100.00
21817;BME280;13247;47.504;7.382;2023-03-21T00:36:09;97552.00;;;5.87;100.00
21817;BME280;13247;47.504;7.382;2023-03-21T00:38:55;97556.78;;;5.35;100.00
21817;BME280;13247;47.504;7.382;2023-03-21T00:41:40;97557.84;;;5.03;100.00
21817;BME280;13247;47.504;7.382;2023-03-21T00:44:25;97550.81;;;5.20;100.00
21817;BME280;13247;47.504;7.382;2023-03-21T00:47:11;97534.16;;;5.43;100.00
21817;BME280;13247;47.504;7.382;2023-03-21T00:49:56;97538.66;;;5.23;100.00
21817;BME280;13247;47.504;7.382;2023-03-21T00:52:40;97539.59;;;5.13;100.00
21817;BME280;13247;47.504;7.382;2023-03-21T00:55:25;97536.09;;;5.19;100.00
21817;BME280;13247;47.504;7.382;2023-03-21T00:58:10;97532.47;;;5.39;100.00
21817;BME280;13247;47.504;7.382;2023-03-21T01:00:55;97527.00;;;5.70;100.00
21817;BME280;13247;47.504;7.382;2023-03-21T01:03:40;97525.94;;;5.93;100.00
21817;BME280;13247;47.504;7.382;2023-03-21T01:06:37;97521.50;;;6.03;100.00
21817;BME280;13247;47.504;7.382;2023-03-21T01:09:24;97524.31;;;5.80;100.00
21817;BME280;13247;47.504;7.382;2023-03-21T01:12:10;97523.66;;;5.55;100.00
21817;BME280;13247;47.504;7.382;2023-03-21T01:14:54;97520.97;;;5.65;100.00
21817;BME280;13247;47.504;7.382;2023-03-21T01:17:39;97519.19;;;5.71;100.00
21817;BME280;13247;47.504;7.382;2023-03-21T01:20:24;97512.28;;;5.67;100.00
21817;BME280;13247;47.504;7.382;2023-03-21T01:23:10;97511.56;;;5.50;100.00
21817;BME280;13247;47.504;7.382;2023-03-21T01:25:56;97516.88;;;5.38;100.00
21817;BME280;13247;47.504;7.382;2023-03-21T01:28:42;97507.16;;;5.60;100.00
21817;BME280;13247;47.504;7.382;2023-03-21T01:31:26;97509.72;;;5.66;100.00
21817;BME280;13247;47.504;7.382;2023-03-21T01:34:11;97503.47;;;5.86;100.00
21817;BME280;13247;47.504;7.382;2023-03-21T01:36:55;97499.03;;;5.94;100.00
21817;BME280;13247;47.504;7.382;2023-03-21T01:39:40;97500.03;;;5.78;100.00
21817;BME280;13247;47.504;7.382;2023-03-21T01:42:25;97500.88;;;5.79;100.00
21817;BME280;13247;47.504;7.382;2023-03-21T01:48:32;97496.66;;;5.69;100.00
21817;BME280;13247;47.504;7.382;2023-03-21T01:51:18;97487.81;;;5.91;100.00
21817;BME280;13247;47.504;7.382;2023-03-21T01:54:06;97487.09;;;5.71;100.00
21817;BME280;13247;47.504;7.382;2023-03-21T01:56:57;97497.72;;;5.48;100.00
21817;BME280;13247;47.504;7.382;2023-03-21T01:59:48;97494.94;;;5.68;100.00
21817;BME280;13247;47.504;7.382;2023-03-21T02:02:34;97497.47;;;5.74;100.00
21817;BME280;13247;47.504;7.382;2023-03-21T02:05:30;97490.47;;;5.82;100.00
21817;BME280;13247;47.504;7.382;2023-03-21T02:08:17;97488.75;;;5.81;100.00
21817;BME280;13247;47.504;7.382;2023-03-21T02:11:02;97483.69;;;5.64;100.00
21817;BME280;13247;47.504;7.382;2023-03-21T02:13:47;97491.56;;;5.58;100.00
21817;BME280;13247;47.504;7.382;2023-03-21T02:16:47;97486.47;;;5.46;100.00
21817;BME280;13247;47.504;7.382;2023-03-21T02:38:51;97470.88;;;5.43;100.00
21817;BME280;13247;47.504;7.382;2023-03-21T02:45:20;97478.78;;;5.32;100.00
21817;BME280;13247;47.504;7.382;2023-03-21T02:48:11;97468.31;;;5.41;100.00
21817;BME280;13247;47.504;7.382;2023-03-21T02:50:59;97467.16;;;5.68;100.00
21817;BME280;13247;47.504;7.382;2023-03-21T02:53:53;97467.94;;;5.78;100.00
21817;BME280;13247;47.504;7.382;2023-03-21T02:56:40;97470.69;;;5.64;100.00
21817;BME280;13247;47.504;7.382;2023-03-21T02:59:27;97470.94;;;5.37;100.00
21817;BME280;13247;47.504;7.382;2023-03-21T03:02:13;97473.75;;;5.11;100.00
21817;BME280;13247;47.504;7.382;2023-03-21T03:04:58;97467.78;;;5.05;100.00
21817;BME280;13247;47.504;7.382;2023-03-21T03:11:27;97473.97;;;4.87;100.00
21817;BME280;13247;47.504;7.382;2023-03-21T03:14:23;97471.22;;;5.05;100.00
21817;BME280;13247;47.504;7.382;2023-03-21T03:17:28;97468.66;;;4.99;100.00
21817;BME280;13247;47.504;7.382;2023-03-21T03:20:37;97466.06;;;4.99;100.00
21817;BME280;13247;47.504;7.382;2023-03-21T03:29:15;97457.31;;;5.11;100.00
21817;BME280;13247;47.504;7.382;2023-03-21T03:32:21;97452.13;;;5.11;100.00
21817;BME280;13247;47.504;7.382;2023-03-21T03:35:12;97451.22;;;5.16;100.00
21817;BME280;13247;47.504;7.382;2023-03-21T03:38:01;97446.03;;;5.12;100.00
21817;BME280;13247;47.504;7.382;2023-03-21T03:40:54;97444.38;;;5.06;100.00
21817;BME280;13247;47.504;7.382;2023-03-21T03:43:48;97441.00;;;4.91;100.00
21817;BME280;13247;47.504;7.382;2023-03-21T03:46:43;97447.03;;;4.97;100.00
21817;BME280;13247;47.504;7.382;2023-03-21T03:49:35;97440.22;;;4.81;100.00
21817;BME280;13247;47.504;7.382;2023-03-21T03:52:28;97436.03;;;4.59;100.00
21817;BME280;13247;47.504;7.382;2023-03-21T03:55:17;97446.50;;;4.48;100.00
21817;BME280;13247;47.504;7.382;2023-03-21T03:58:02;97442.25;;;4.37;100.00
21817;BME280;13247;47.504;7.382;2023-03-21T04:00:47;97455.31;;;4.17;100.00
21817;BME280;13247;47.504;7.382;2023-03-21T04:03:34;97452.69;;;4.26;100.00
21817;BME280;13247;47.504;7.382;2023-03-21T04:06:20;97451.78;;;4.29;100.00
21817;BME280;13247;47.504;7.382;2023-03-21T04:09:05;97463.88;;;4.39;100.00
21817;BME280;13247;47.504;7.382;2023-03-21T04:11:51;97447.34;;;4.52;100.00
21817;BME280;13247;47.504;7.382;2023-03-21T04:14:36;97450.88;;;4.40;100.00
21817;BME280;13247;47.504;7.382;2023-03-21T04:17:20;97447.38;;;4.47;100.00
21817;BME280;13247;47.504;7.382;2023-03-21T04:20:06;97450.81;;;4.54;100.00
21817;BME280;13247;47.504;7.382;2023-03-21T04:22:54;97456.00;;;4.52;100.00
21817;BME280;13247;47.504;7.382;2023-03-21T04:25:39;97452.53;;;4.53;100.00
21817;BME280;13247;47.504;7.382;2023-03-21T04:28:24;97453.41;;;4.51;100.00
21817;BME280;13247;47.504;7.382;2023-03-21T04:31:09;97454.28;;;4.48;100.00
21817;BME280;13247;47.504;7.382;2023-03-21T04:33:53;97443.03;;;4.49;100.00
21817;BME280;13247;47.504;7.382;2023-03-21T04:36:39;97448.38;;;4.19;100.00
21817;BME280;13247;47.504;7.382;2023-03-21T04:39:30;97447.53;;;4.17;100.00
21817;BME280;13247;47.504;7.382;2023-03-21T04:42:16;97444.06;;;4.18;100.00
21817;BME280;13247;47.504;7.382;2023-03-21T04:45:04;97444.97;;;4.07;100.00
21817;BME280;13247;47.504;7.382;2023-03-21T04:47:49;97451.09;;;3.96;100.00
21817;BME280;13247;47.504;7.382;2023-03-21T04:50:34;97446.81;;;3.86;100.00
21817;BME280;13247;47.504;7.382;2023-03-21T04:53:19;97440.75;;;3.78;100.00
21817;BME280;13247;47.504;7.382;2023-03-21T04:56:04;97445.91;;;3.89;100.00
21817;BME280;13247;47.504;7.382;2023-03-21T04:58:49;97436.28;;;4.15;100.00
21817;BME280;13247;47.504;7.382;2023-03-21T05:01:33;97430.97;;;4.42;100.00
21817;BME280;13247;47.504;7.382;2023-03-21T05:04:18;97434.19;;;4.76;100.00
21817;BME280;13247;47.504;7.382;2023-03-21T05:07:02;97441.06;;;4.85;100.00
21817;BME280;13247;47.504;7.382;2023-03-21T05:09:47;97437.56;;;4.92;100.00
21817;BME280;13247;47.504;7.382;2023-03-21T05:12:32;97443.53;;;5.01;100.00
21817;BME280;13247;47.504;7.382;2023-03-21T05:15:17;97426.97;;;5.14;100.00
21817;BME280;13247;47.504;7.382;2023-03-21T05:18:02;97425.19;;;5.21;100.00
21817;BME280;13247;47.504;7.382;2023-03-21T05:20:54;97426.84;;;5.26;100.00
21817;BME280;13247;47.504;7.382;2023-03-21T05:23:40;97416.34;;;5.37;100.00
21817;BME280;13247;47.504;7.382;2023-03-21T05:26:24;97412.88;;;5.38;100.00
21817;BME280;13247;47.504;7.382;2023-03-21T05:29:09;97405.91;;;5.41;100.00
21817;BME280;13247;47.504;7.382;2023-03-21T05:31:55;97406.75;;;5.43;100.00
21817;BME280;13247;47.504;7.382;2023-03-21T05:34:40;97412.72;;;5.51;100.00
21817;BME280;13247;47.504;7.382;2023-03-21T05:37:24;97410.09;;;5.54;100.00
21817;BME280;13247;47.504;7.382;2023-03-21T05:40:10;97404.03;;;5.57;100.00
21817;BME280;13247;47.504;7.382;2023-03-21T05:42:55;97412.59;;;5.65;100.00
21817;BME280;13247;47.504;7.382;2023-03-21T05:45:40;97411.72;;;5.65;100.00
21817;BME280;13247;47.504;7.382;2023-03-21T05:48:25;97403.25;;;5.49;100.00
21817;BME280;13247;47.504;7.382;2023-03-21T05:51:09;97405.63;;;5.67;100.00
21817;BME280;13247;47.504;7.382;2023-03-21T05:53:54;97409.16;;;5.60;100.00
21817;BME280;13247;47.504;7.382;2023-03-21T05:56:38;97413.56;;;5.53;100.00
21817;BME280;13247;47.504;7.382;2023-03-21T05:59:23;97402.22;;;5.64;100.00
21817;BME280;13247;47.504;7.382;2023-03-21T06:02:07;97406.44;;;5.71;100.00
21817;BME280;13247;47.504;7.382;2023-03-21T06:04:52;97402.22;;;5.64;100.00
21817;BME280;13247;47.504;7.382;2023-03-21T06:07:37;97407.38;;;5.67;100.00
21817;BME280;13247;47.504;7.382;2023-03-21T06:10:23;97410.69;;;5.81;100.00
21817;BME280;13247;47.504;7.382;2023-03-21T06:13:07;97403.63;;;5.92;100.00
21817;BME280;13247;47.504;7.382;2023-03-21T06:15:52;97409.53;;;6.07;100.00
21817;BME280;13247;47.504;7.382;2023-03-21T06:18:36;97403.25;;;6.22;100.00
21817;BME280;13247;47.504;7.382;2023-03-21T06:21:21;97407.56;;;6.24;100.00
21817;BME280;13247;47.504;7.382;2023-03-21T06:24:06;97404.84;;;6.33;100.00
21817;BME280;13247;47.504;7.382;2023-03-21T06:26:51;97409.25;;;6.28;100.00
21817;BME280;13247;47.504;7.382;2023-03-21T06:29:36;97399.66;;;6.33;100.00
21817;BME280;13247;47.504;7.382;2023-03-21T06:32:20;97398.94;;;6.19;100.00
21817;BME280;13247;47.504;7.382;2023-03-21T06:35:05;97406.94;;;6.04;100.00
21817;BME280;13247;47.504;7.382;2023-03-21T06:37:50;97400.06;;;6.02;100.00
21817;BME280;13247;47.504;7.382;2023-03-21T06:40:34;97402.53;;;6.12;100.00
21817;BME280;13247;47.504;7.382;2023-03-21T06:43:19;97404.28;;;6.09;100.00
21817;BME280;13247;47.504;7.382;2023-03-21T06:46:03;97410.34;;;6.11;100.00
21817;BME280;13247;47.504;7.382;2023-03-21T06:48:48;97413.63;;;6.26;100.00
21817;BME280;13247;47.504;7.382;2023-03-21T06:51:33;97417.25;;;6.13;100.00
21817;BME280;13247;47.504;7.382;2023-03-21T06:54:19;97415.69;;;6.02;100.00
21817;BME280;13247;47.504;7.382;2023-03-21T06:57:04;97410.38;;;6.06;100.00
21817;BME280;13247;47.504;7.382;2023-03-21T06:59:49;97413.63;;;6.26;100.00
21817;BME280;13247;47.504;7.382;2023-03-21T07:02:33;97412.84;;;6.18;100.00
21817;BME280;13247;47.504;7.382;2023-03-21T07:05:18;97414.56;;;6.19;100.00
21817;BME280;13247;47.504;7.382;2023-03-21T07:08:03;97412.66;;;6.32;100.00
21817;BME280;13247;47.504;7.382;2023-03-21T07:10:48;97401.13;;;6.50;100.00
21817;BME280;13247;47.504;7.382;2023-03-21T07:13:33;97400.84;;;6.69;100.00
21817;BME280;13247;47.504;7.382;2023-03-21T07:16:19;97397.97;;;6.86;100.00
21817;BME280;13247;47.504;7.382;2023-03-21T07:19:05;97394.56;;;6.81;100.00
21817;BME280;13247;47.504;7.382;2023-03-21T07:21:50;97398.69;;;6.95;100.00
21817;BME280;13247;47.504;7.382;2023-03-21T07:24:35;97396.91;;;6.97;100.00
21817;BME280;13247;47.504;7.382;2023-03-21T07:27:20;97403.09;;;6.92;100.00
21817;BME280;13247;47.504;7.382;2023-03-21T07:30:05;97402.19;;;6.94;100.00
21817;BME280;13247;47.504;7.382;2023-03-21T07:32:50;97401.94;;;7.09;100.00
21817;BME280;13247;47.504;7.382;2023-03-21T07:35:36;97398.28;;;7.20;100.00
21817;BME280;13247;47.504;7.382;2023-03-21T07:38:21;97406.03;;;7.24;100.00
21817;BME280;13247;47.504;7.382;2023-03-21T07:41:06;97403.75;;;7.53;100.00
21817;BME280;13247;47.504;7.382;2023-03-21T07:43:51;97403.41;;;7.73;100.00
21817;BME280;13247;47.504;7.382;2023-03-21T07:46:35;97403.75;;;7.53;100.00
21817;BME280;13247;47.504;7.382;2023-03-21T07:49:20;97407.31;;;7.48;100.00
21817;BME280;13247;47.504;7.382;2023-03-21T07:52:05;97408.00;;;7.59;100.00
21817;BME280;13247;47.504;7.382;2023-03-21T07:54:51;97414.88;;;7.63;100.00
21817;BME280;13247;47.504;7.382;2023-03-21T07:57:36;97416.34;;;7.79;100.00
21817;BME280;13247;47.504;7.382;2023-03-21T08:00:21;97414.78;;;8.12;100.00
21817;BME280;13247;47.504;7.382;2023-03-21T08:03:09;97422.78;;;8.04;100.00
21817;BME280;13247;47.504;7.382;2023-03-21T08:05:54;97415.38;;;8.67;100.00
21817;BME280;13247;47.504;7.382;2023-03-21T08:08:39;97413.69;;;9.00;100.00
21817;BME280;13247;47.504;7.382;2023-03-21T08:11:24;97414.56;;;9.02;100.00
21817;BME280;13247;47.504;7.382;2023-03-21T08:14:09;97416.63;;;9.23;100.00
21817;BME280;13247;47.504;7.382;2023-03-21T08:16:53;97412.09;;;9.31;100.00
21817;BME280;13247;47.504;7.382;2023-03-21T08:19:38;97412.34;;;9.20;100.00
21817;BME280;13247;47.504;7.382;2023-03-21T08:22:22;97411.81;;;9.40;100.00
21817;BME280;13247;47.504;7.382;2023-03-21T08:25:08;97412.34;;;9.54;100.00
21817;BME280;13247;47.504;7.382;2023-03-21T08:27:54;97423.38;;;9.65;100.00
21817;BME280;13247;47.504;7.382;2023-03-21T08:30:39;97416.22;;;9.72;100.00
21817;BME280;13247;47.504;7.382;2023-03-21T08:33:24;97412.72;;;9.73;100.00
21817;BME280;13247;47.504;7.382;2023-03-21T08:36:09;97416.75;;;9.84;100.00
21817;BME280;13247;47.504;7.382;2023-03-21T08:38:54;97408.22;;;9.78;100.00
21817;BME280;13247;47.504;7.382;2023-03-21T08:41:40;97419.59;;;9.77;100.00
21817;BME280;13247;47.504;7.382;2023-03-21T08:44:25;97415.63;;;9.93;100.00
21817;BME280;13247;47.504;7.382;2023-03-21T08:47:10;97410.16;;;9.71;100.00
21817;BME280;13247;47.504;7.382;2023-03-21T08:49:55;97400.03;;;9.90;100.00
21817;BME280;13247;47.504;7.382;2023-03-21T08:52:40;97397.53;;;10.16;100.00
21817;BME280;13247;47.504;7.382;2023-03-21T08:55:25;97399.47;;;10.11;100.00
21817;BME280;13247;47.504;7.382;2023-03-21T08:58:10;97401.66;;;10.24;100.00
21817;BME280;13247;47.504;7.382;2023-03-21T09:00:54;97391.25;;;10.23;100.00
21817;BME280;13247;47.504;7.382;2023-03-21T09:03:40;97395.72;;;10.19;100.00
21817;BME280;13247;47.504;7.382;2023-03-21T09:06:24;97393.50;;;10.35;100.00
21817;BME280;13247;47.504;7.382;2023-03-21T09:09:10;97390.75;;;10.40;100.00
21817;BME280;13247;47.504;7.382;2023-03-21T09:11:55;97385.81;;;10.29;100.00
21817;BME280;13247;47.504;7.382;2023-03-21T09:14:40;97384.22;;;10.53;100.00
21817;BME280;13247;47.504;7.382;2023-03-21T09:17:25;97382.69;;;10.75;100.00
21817;BME280;13247;47.504;7.382;2023-03-21T09:20:11;97374.34;;;10.88;100.00
21817;BME280;13247;47.504;7.382;2023-03-21T09:23:02;97383.09;;;10.89;100.00
21817;BME280;13247;47.504;7.382;2023-03-21T09:25:47;97380.41;;;10.90;100.00
21817;BME280;13247;47.504;7.382;2023-03-21T09:28:32;97378.63;;;11.19;100.00
21817;BME280;13247;47.504;7.382;2023-03-21T09:31:19;97378.91;;;11.36;100.00
21817;BME280;13247;47.504;7.382;2023-03-21T09:34:06;97375.22;;;11.41;100.00
21817;BME280;13247;47.504;7.382;2023-03-21T09:36:51;97372.59;;;11.67;100.00
21817;BME280;13247;47.504;7.382;2023-03-21T09:39:40;97367.81;;;12.02;100.00
21817;BME280;13247;47.504;7.382;2023-03-21T09:45:20;97370.59;;;12.45;100.00
21817;BME280;13247;47.504;7.382;2023-03-21T09:48:16;97370.78;;;12.62;100.00
21817;BME280;13247;47.504;7.382;2023-03-21T09:51:13;97370.44;;;12.71;100.00
21817;BME280;13247;47.504;7.382;2023-03-21T09:54:04;97373.28;;;12.88;100.00
21817;BME280;13247;47.504;7.382;2023-03-21T09:56:54;97375.84;;;12.90;100.00
21817;BME280;13247;47.504;7.382;2023-03-21T09:59:39;97375.34;;;13.02;100.00
21817;BME280;13247;47.504;7.382;2023-03-21T10:05:30;97373.69;;;13.43;100.00
21817;BME280;13247;47.504;7.382;2023-03-21T10:08:25;97370.69;;;13.30;100.00
21817;BME280;13247;47.504;7.382;2023-03-21T10:11:18;97365.97;;;13.58;100.00
21817;BME280;13247;47.504;7.382;2023-03-21T10:14:24;97370.63;;;13.92;100.00
21817;BME280;13247;47.504;7.382;2023-03-21T10:17:34;97354.69;;;13.95;100.00
21817;BME280;13247;47.504;7.382;2023-03-21T10:20:35;97350.59;;;14.08;100.00
21817;BME280;13247;47.504;7.382;2023-03-21T10:23:24;97352.97;;;13.94;100.00
21817;BME280;13247;47.504;7.382;2023-03-21T10:26:11;97350.03;;;14.40;93.17
21817;BME280;13247;47.504;7.382;2023-03-21T10:28:58;97351.09;;;14.55;95.48
21817;BME280;13247;47.504;7.382;2023-03-21T10:31:46;97337.31;;;14.48;93.40
21817;BME280;13247;47.504;7.382;2023-03-21T10:34:47;97340.66;;;14.70;87.40
21817;BME280;13247;47.504;7.382;2023-03-21T10:37:33;97331.94;;;14.68;86.13
21817;BME280;13247;47.504;7.382;2023-03-21T10:40:19;97337.94;;;14.90;88.30
21817;BME280;13247;47.504;7.382;2023-03-21T10:43:28;97339.88;;;14.50;92.97
21817;BME280;13247;47.504;7.382;2023-03-21T10:46:17;97336.47;;;14.29;93.92
21817;BME280;13247;47.504;7.382;2023-03-21T10:49:07;97336.25;;;14.52;91.79
21817;BME280;13247;47.504;7.382;2023-03-21T10:51:57;97336.19;;;14.89;86.11
21817;BME280;13247;47.504;7.382;2023-03-21T10:54:42;97327.69;;;15.19;88.81
21817;BME280;13247;47.504;7.382;2023-03-21T10:57:28;97317.97;;;15.02;86.69
21817;BME280;13247;47.504;7.382;2023-03-21T11:00:20;97315.19;;;15.05;81.09
21817;BME280;13247;47.504;7.382;2023-03-21T11:03:06;97329.34;;;15.21;77.77
21817;BME280;13247;47.504;7.382;2023-03-21T11:06:03;97320.03;;;15.14;81.99
21817;BME280;13247;47.504;7.382;2023-03-21T11:09:16;97322.59;;;15.16;82.68
21817;BME280;13247;47.504;7.382;2023-03-21T11:12:12;97317.06;;;15.20;76.31
21817;BME280;13247;47.504;7.382;2023-03-21T11:14:57;97316.56;;;15.12;79.27
21817;BME280;13247;47.504;7.382;2023-03-21T11:17:58;97317.06;;;15.03;82.33
21817;BME280;13247;47.504;7.382;2023-03-21T11:20:55;97321.09;;;15.10;82.36
21817;BME280;13247;47.504;7.382;2023-03-21T11:23:47;97313.34;;;15.41;80.99
21817;BME280;13247;47.504;7.382;2023-03-21T11:26:35;97318.41;;;15.63;79.90
21817;BME280;13247;47.504;7.382;2023-03-21T11:29:36;97312.22;;;15.47;77.29
21817;BME280;13247;47.504;7.382;2023-03-21T11:32:35;97307.84;;;15.63;74.12
21817;BME280;13247;47.504;7.382;2023-03-21T11:35:37;97302.47;;;15.82;71.22
21817;BME280;13247;47.504;7.382;2023-03-21T11:38:30;97305.22;;;15.46;75.63
21817;BME280;13247;47.504;7.382;2023-03-21T11:41:24;97299.31;;;15.58;74.82
21817;BME280;13247;47.504;7.382;2023-03-21T11:44:28;97297.81;;;15.52;74.13
21817;BME280;13247;47.504;7.382;2023-03-21T11:47:14;97292.09;;;16.10;73.51
21817;BME280;13247;47.504;7.382;2023-03-21T11:49:58;97283.22;;;15.95;70.84
21817;BME280;13247;47.504;7.382;2023-03-21T11:56:24;97281.66;;;16.39;64.57
21817;BME280;13247;47.504;7.382;2023-03-21T12:05:38;97268.06;;;16.14;68.26
21817;BME280;13247;47.504;7.382;2023-03-21T12:14:58;97253.97;;;15.98;65.09
21817;BME280;13247;47.504;7.382;2023-03-21T12:23:59;97244.50;;;17.17;60.84
21817;BME280;13247;47.504;7.382;2023-03-21T12:39:29;97236.84;;;16.68;59.68
21817;BME280;13247;47.504;7.382;2023-03-21T12:46:07;97221.72;;;16.70;61.77
21817;BME280;13247;47.504;7.382;2023-03-21T12:48:56;97221.75;;;16.99;59.79
21817;BME280;13247;47.504;7.382;2023-03-21T12:51:54;97211.13;;;17.43;58.52
21817;BME280;13247;47.504;7.382;2023-03-21T12:58:09;97212.63;;;16.89;61.37
21817;BME280;13247;47.504;7.382;2023-03-21T13:00:59;97205.13;;;17.11;60.55
21817;BME280;13247;47.504;7.382;2023-03-21T13:04:08;97200.19;;;16.76;62.50
21817;BME280;13247;47.504;7.382;2023-03-21T13:07:00;97202.38;;;16.83;64.09
21817;BME280;13247;47.504;7.382;2023-03-21T13:09:47;97197.31;;;16.94;62.90
21817;BME280;13247;47.504;7.382;2023-03-21T13:22:08;97194.72;;;16.79;60.52
21817;BME280;13247;47.504;7.382;2023-03-21T13:24:59;97183.13;;;16.95;61.78
21817;BME280;13247;47.504;7.382;2023-03-21T13:27:58;97184.69;;;16.84;62.76
21817;BME280;13247;47.504;7.382;2023-03-21T13:30:44;97178.97;;;17.05;61.53
21817;BME280;13247;47.504;7.382;2023-03-21T13:33:32;97183.81;;;16.83;63.00
21817;BME280;13247;47.504;7.382;2023-03-21T13:36:25;97181.78;;;16.88;60.35
21817;BME280;13247;47.504;7.382;2023-03-21T13:39:29;97183.25;;;16.78;63.06
21817;BME280;13247;47.504;7.382;2023-03-21T13:42:22;97183.00;;;16.83;62.70
21817;BME280;13247;47.504;7.382;2023-03-21T13:45:10;97176.19;;;17.22;59.03
21817;BME280;13247;47.504;7.382;2023-03-21T13:47:58;97172.34;;;17.42;56.31
21817;BME280;13247;47.504;7.382;2023-03-21T13:50:59;97172.66;;;17.08;58.18
21817;BME280;13247;47.504;7.382;2023-03-21T13:53:59;97177.69;;;16.53;62.02
21817;BME280;13247;47.504;7.382;2023-03-21T13:59:43;97167.03;;;17.42;62.52
21817;BME280;13247;47.504;7.382;2023-03-21T14:02:30;97171.09;;;17.34;59.18
21817;BME280;13247;47.504;7.382;2023-03-21T14:05:24;97169.53;;;17.01;63.19
21817;BME280;13247;47.504;7.382;2023-03-21T14:08:15;97170.44;;;17.00;64.99
21817;BME280;13247;47.504;7.382;2023-03-21T14:11:05;97172.41;;;16.83;65.29
21817;BME280;13247;47.504;7.382;2023-03-21T14:13:52;97179.38;;;16.38;65.53
21817;BME280;13247;47.504;7.382;2023-03-21T14:16:38;97174.19;;;16.53;67.43
21817;BME280;13247;47.504;7.382;2023-03-21T14:19:31;97173.28;;;16.68;67.11
21817;BME280;13247;47.504;7.382;2023-03-21T14:22:16;97175.03;;;16.53;71.03
21817;BME280;13247;47.504;7.382;2023-03-21T14:25:02;97167.16;;;17.11;63.41
21817;BME280;13247;47.504;7.382;2023-03-21T14:27:49;97165.38;;;16.82;66.67
21817;BME280;13247;47.504;7.382;2023-03-21T14:30:38;97170.06;;;17.06;64.57
21817;BME280;13247;47.504;7.382;2023-03-21T14:33:41;97166.78;;;17.17;60.78
21817;BME280;13247;47.504;7.382;2023-03-21T14:36:32;97164.72;;;17.08;63.25
21817;BME280;13247;47.504;7.382;2023-03-21T14:39:23;97161.72;;;16.84;64.26
21817;BME280;13247;47.504;7.382;2023-03-21T14:42:10;97164.59;;;17.09;60.17
21817;BME280;13247;47.504;7.382;2023-03-21T14:44:57;97167.84;;;17.14;61.60
21817;BME280;13247;47.504;7.382;2023-03-21T14:47:54;97161.28;;;17.06;63.71
21817;BME280;13247;47.504;7.382;2023-03-21T14:50:52;97155.25;;;17.18;63.36
21817;BME280;13247;47.504;7.382;2023-03-21T14:53:40;97154.75;;;17.11;61.13
21817;BME280;13247;47.504;7.382;2023-03-21T14:56:25;97154.88;;;17.10;62.71
21817;BME280;13247;47.504;7.382;2023-03-21T14:59:14;97146.38;;;17.19;62.25
21817;BME280;13247;47.504;7.382;2023-03-21T15:02:02;97146.22;;;17.06;61.45
21817;BME280;13247;47.504;7.382;2023-03-21T15:04:54;97143.13;;;17.00;63.38
21817;BME280;13247;47.504;7.382;2023-03-21T15:07:40;97146.31;;;17.05;62.66
21817;BME280;13247;47.504;7.382;2023-03-21T15:10:27;97150.88;;;16.73;65.15
21817;BME280;13247;47.504;7.382;2023-03-21T15:13:18;97142.69;;;16.78;67.05
21817;BME280;13247;47.504;7.382;2023-03-21T15:16:04;97147.06;;;16.93;64.79
21817;BME280;13247;47.504;7.382;2023-03-21T15:18:49;97149.56;;;16.66;69.42
21817;BME280;13247;47.504;7.382;2023-03-21T15:21:38;97147.09;;;16.77;71.31
21817;BME280;13247;47.504;7.382;2023-03-21T15:24:35;97147.44;;;16.87;70.17
21817;BME280;13247;47.504;7.382;2023-03-21T15:27:23;97146.81;;;16.68;69.91
21817;BME280;13247;47.504;7.382;2023-03-21T15:30:23;97146.84;;;16.52;73.73
21817;BME280;13247;47.504;7.382;2023-03-21T15:33:11;97150.22;;;16.70;71.96
21817;BME280;13247;47.504;7.382;2023-03-21T15:35:58;97153.00;;;16.53;72.83
21817;BME280;13247;47.504;7.382;2023-03-21T15:38:43;97152.53;;;16.60;73.54
21817;BME280;13247;47.504;7.382;2023-03-21T15:41:33;97150.16;;;16.85;73.32
21817;BME280;13247;47.504;7.382;2023-03-21T15:44:21;97152.53;;;16.90;72.11
21817;BME280;13247;47.504;7.382;2023-03-21T15:47:13;97166.16;;;16.84;74.66
21817;BME280;13247;47.504;7.382;2023-03-21T15:49:58;97162.97;;;16.93;77.62
21817;BME280;13247;47.504;7.382;2023-03-21T15:52:51;97160.75;;;16.85;74.06
21817;BME280;13247;47.504;7.382;2023-03-21T15:55:46;97163.50;;;16.84;74.48
21817;BME280;13247;47.504;7.382;2023-03-21T15:58:39;97156.16;;;16.89;77.97
21817;BME280;13247;47.504;7.382;2023-03-21T16:01:25;97162.06;;;16.78;79.03
21817;BME280;13247;47.504;7.382;2023-03-21T16:04:10;97161.22;;;16.78;76.87
21817;BME280;13247;47.504;7.382;2023-03-21T16:07:01;97155.69;;;16.67;77.08
21817;BME280;13247;47.504;7.382;2023-03-21T16:09:46;97158.78;;;16.59;76.48
21817;BME280;13247;47.504;7.382;2023-03-21T16:12:31;97161.94;;;16.66;77.28
21817;BME280;13247;47.504;7.382;2023-03-21T16:15:17;97158.16;;;16.70;76.48
21817;BME280;13247;47.504;7.382;2023-03-21T16:18:04;97168.53;;;16.59;74.06
21817;BME280;13247;47.504;7.382;2023-03-21T16:20:50;97167.34;;;16.64;75.99
21817;BME280;13247;47.504;7.382;2023-03-21T16:23:36;97165.97;;;16.57;78.02
21817;BME280;13247;47.504;7.382;2023-03-21T16:26:28;97165.31;;;16.54;80.93